createdAt,value
2018-11-04T00:01:59.674Z,91.10
2018-11-04T00:04:31.104Z,90.90
2018-11-04T00:07:06.160Z,90.60
2018-11-04T00:09:37.360Z,90.50
2018-11-04T00:12:08.931Z,90.60
2018-11-04T00:14:40.228Z,90.90
2018-11-04T00:17:11.833Z,90.80
2018-11-04T00:19:43.036Z,91.30
2018-11-04T00:22:14.780Z,92.50
2018-11-04T00:24:45.976Z,96.00
2018-11-04T00:27:17.704Z,97.40
2018-11-04T00:29:49.122Z,97.90
2018-11-04T00:32:22.137Z,98.10
2018-11-04T00:34:53.556Z,97.80
2018-11-04T00:37:24.884Z,97.60
2018-11-04T00:39:56.255Z,97.20
2018-11-04T00:42:27.807Z,97.30
2018-11-04T00:44:59.092Z,97.30
2018-11-04T00:47:31.428Z,97.30
2018-11-04T00:50:04.352Z,97.20
2018-11-04T00:52:35.941Z,97.40
2018-11-04T00:55:08.557Z,97.30
2018-11-04T00:57:40.103Z,97.70
2018-11-04T01:00:14.352Z,97.40
2018-11-04T01:02:46.964Z,97.60
2018-11-04T01:05:18.661Z,97.80
2018-11-04T01:07:50.228Z,98.20
2018-11-04T01:10:21.352Z,98.40
2018-11-04T01:12:53.044Z,98.40
2018-11-04T01:15:24.408Z,98.10
2018-11-04T01:17:56.325Z,98.00
2018-11-04T01:20:27.809Z,97.90
2018-11-04T01:22:59.177Z,97.90
2018-11-04T01:25:30.513Z,97.90
2018-11-04T01:28:04.852Z,97.90
2018-11-04T01:30:35.822Z,98.10
2018-11-04T01:33:11.289Z,98.20
2018-11-04T01:35:42.463Z,98.40
2018-11-04T01:38:14.065Z,98.40
2018-11-04T01:40:45.259Z,98.30
2018-11-04T01:43:16.196Z,98.30
2018-11-04T01:45:47.448Z,98.40
2018-11-04T01:48:18.874Z,98.50
2018-11-04T01:50:50.816Z,98.60
2018-11-04T01:53:22.465Z,98.80
2018-11-04T01:55:53.577Z,99.40
2018-11-04T01:58:24.826Z,99.90
2018-11-04T02:00:56.160Z,99.90
2018-11-04T02:03:27.755Z,99.90
2018-11-04T02:05:58.987Z,99.90
2018-11-04T02:08:30.520Z,99.90
2018-11-04T02:11:01.871Z,99.90
2018-11-04T02:13:33.467Z,99.90
2018-11-04T02:16:04.728Z,99.90
2018-11-04T02:18:36.144Z,99.90
2018-11-04T02:21:07.585Z,99.90
2018-11-04T02:23:39.276Z,99.90
2018-11-04T02:26:10.323Z,99.90
2018-11-04T02:28:41.479Z,99.90
2018-11-04T02:31:12.976Z,99.90
2018-11-04T02:33:45.428Z,99.90
2018-11-04T02:36:16.580Z,99.90
2018-11-04T02:38:48.192Z,99.90
2018-11-04T02:41:19.581Z,99.90
2018-11-04T02:43:51.540Z,99.90
2018-11-04T02:46:22.764Z,99.90
2018-11-04T02:48:54.312Z,99.90
2018-11-04T02:51:25.412Z,99.90
2018-11-04T02:53:56.760Z,99.90
2018-11-04T02:56:28.121Z,99.70
2018-11-04T02:58:59.876Z,99.60
2018-11-04T03:01:31.060Z,99.90
2018-11-04T03:04:02.362Z,99.90
2018-11-04T03:06:36.148Z,99.90
2018-11-04T03:09:13.234Z,99.90
2018-11-04T03:11:44.487Z,99.90
2018-11-04T03:14:15.807Z,99.80
2018-11-04T03:16:46.884Z,99.90
2018-11-04T03:19:18.644Z,99.90
2018-11-04T03:21:49.904Z,99.90
2018-11-04T03:24:21.361Z,99.90
2018-11-04T03:26:52.520Z,97.60
2018-11-04T03:29:23.845Z,96.70
2018-11-04T03:31:55.127Z,96.50
2018-11-04T03:34:27.492Z,96.70
2018-11-04T03:36:58.749Z,96.40
2018-11-04T03:39:30.656Z,96.50
2018-11-04T03:42:02.235Z,96.40
2018-11-04T03:44:34.274Z,96.20
2018-11-04T03:47:05.838Z,96.00
2018-11-04T03:49:37.797Z,95.70
2018-11-04T03:52:09.863Z,95.30
2018-11-04T03:54:41.658Z,95.50
2018-11-04T03:57:13.008Z,95.70
2018-11-04T03:59:45.155Z,95.80
2018-11-04T04:02:16.459Z,95.50
2018-11-04T04:04:48.022Z,95.80
2018-11-04T04:07:19.204Z,96.20
2018-11-04T04:09:51.204Z,96.30
2018-11-04T04:12:22.536Z,96.30
2018-11-04T04:14:54.114Z,96.20
2018-11-04T04:17:25.602Z,96.10
2018-11-04T04:19:57.100Z,95.80
2018-11-04T04:22:28.410Z,96.10
2018-11-04T04:25:00.327Z,96.20
2018-11-04T04:27:31.492Z,95.90
2018-11-04T04:30:02.926Z,95.70
2018-11-04T04:32:34.059Z,95.10
2018-11-04T04:35:08.140Z,94.70
2018-11-04T04:37:39.252Z,94.50
2018-11-04T04:40:11.132Z,94.50
2018-11-04T04:42:42.287Z,94.20
2018-11-04T04:45:13.541Z,94.20
2018-11-04T04:47:44.675Z,94.40
2018-11-04T04:50:16.215Z,94.30
2018-11-04T04:52:47.180Z,94.40
2018-11-04T04:55:18.907Z,94.60
2018-11-04T04:57:49.952Z,94.70
2018-11-04T05:00:21.495Z,94.40
2018-11-04T05:02:52.396Z,94.70
2018-11-04T05:05:24.568Z,94.70
2018-11-04T05:07:55.726Z,94.20
2018-11-04T05:10:27.108Z,94.60
2018-11-04T05:12:58.687Z,95.10
2018-11-04T05:15:30.345Z,95.30
2018-11-04T05:18:03.691Z,95.50
2018-11-04T05:20:34.913Z,95.40
2018-11-04T05:23:06.228Z,95.50
2018-11-04T05:25:37.808Z,95.40
2018-11-04T05:28:09.620Z,94.70
2018-11-04T05:30:41.412Z,95.20
2018-11-04T05:33:12.501Z,95.10
2018-11-04T05:35:45.083Z,95.20
2018-11-04T05:38:16.340Z,95.50
2018-11-04T05:40:48.139Z,95.80
2018-11-04T05:43:19.903Z,96.10
2018-11-04T05:45:51.069Z,96.20
2018-11-04T05:48:22.484Z,96.20
2018-11-04T05:50:53.672Z,96.00
2018-11-04T05:53:24.851Z,95.70
2018-11-04T05:55:56.525Z,95.50
2018-11-04T05:58:27.832Z,94.30
2018-11-04T06:00:59.599Z,93.70
2018-11-04T06:03:30.728Z,92.60
2018-11-04T06:06:02.568Z,91.20
2018-11-04T06:08:33.765Z,90.60
2018-11-04T06:11:08.248Z,89.60
2018-11-04T06:13:39.424Z,89.10
2018-11-04T06:16:11.147Z,90.30
2018-11-04T06:18:42.962Z,90.10
2018-11-04T06:21:14.319Z,90.90
2018-11-04T06:23:45.571Z,90.70
2018-11-04T06:26:16.934Z,91.10
2018-11-04T06:28:48.215Z,88.70
2018-11-04T06:31:19.565Z,88.60
2018-11-04T06:33:50.900Z,89.20
2018-11-04T06:36:23.344Z,90.50
2018-11-04T06:38:54.465Z,88.40
2018-11-04T06:41:26.463Z,88.30
2018-11-04T06:43:57.925Z,86.60
2018-11-04T06:46:29.468Z,86.50
2018-11-04T06:49:00.870Z,87.70
2018-11-04T06:51:32.201Z,86.90
2018-11-04T06:54:04.229Z,79.70
2018-11-04T06:56:35.970Z,75.40
2018-11-04T06:59:07.210Z,76.20
2018-11-04T07:01:38.512Z,77.40
2018-11-04T07:04:29.624Z,77.50
2018-11-04T07:07:01.053Z,77.30
2018-11-04T07:09:32.289Z,76.10
2018-11-04T07:12:03.973Z,75.20
2018-11-04T07:14:35.113Z,73.20
2018-11-04T07:17:07.108Z,73.90
2018-11-04T07:19:38.355Z,73.80
2018-11-04T07:22:09.875Z,70.90
2018-11-04T07:24:41.237Z,68.00
2018-11-04T07:27:12.704Z,64.70
2018-11-04T07:29:43.970Z,61.00
2018-11-04T07:32:15.909Z,64.90
2018-11-04T07:34:47.176Z,62.00
2018-11-04T07:37:19.645Z,60.70
2018-11-04T07:39:50.980Z,58.40
2018-11-04T07:42:22.197Z,57.50
2018-11-04T07:44:53.496Z,57.00
2018-11-04T07:47:24.865Z,55.10
2018-11-04T07:49:56.110Z,55.10
2018-11-04T07:52:27.818Z,55.40
2018-11-04T07:54:59.140Z,54.80
2018-11-04T07:57:30.518Z,55.50
2018-11-04T08:00:04.637Z,53.40
2018-11-04T08:02:36.809Z,53.40
2018-11-04T08:05:08.781Z,53.90
2018-11-04T08:07:40.803Z,52.50
2018-11-04T08:10:13.392Z,52.30
2018-11-04T08:12:45.277Z,52.60
2018-11-04T08:15:16.352Z,51.90
2018-11-04T08:17:47.688Z,52.00
2018-11-04T08:20:18.948Z,52.30
2018-11-04T08:22:50.296Z,52.60
2018-11-04T08:25:21.733Z,52.60
2018-11-04T08:27:53.900Z,52.90
2018-11-04T08:30:25.165Z,51.40
2018-11-04T08:32:57.183Z,52.10
2018-11-04T08:35:28.456Z,51.90
2018-11-04T08:38:03.212Z,51.80
2018-11-04T08:40:34.644Z,52.50
2018-11-04T08:43:06.269Z,54.10
2018-11-04T08:45:37.612Z,57.00
2018-11-04T08:48:09.481Z,54.20
2018-11-04T08:50:40.667Z,53.30
2018-11-04T08:53:11.867Z,54.40
2018-11-04T08:55:43.197Z,54.60
2018-11-04T08:58:14.581Z,55.90
2018-11-04T09:00:46.968Z,58.10
2018-11-04T09:03:18.828Z,56.00
2018-11-04T09:05:50.084Z,59.30
2018-11-04T09:08:21.495Z,59.80
2018-11-04T09:10:52.771Z,60.80
2018-11-04T09:13:24.236Z,59.40
2018-11-04T09:15:55.516Z,61.80
2018-11-04T09:18:27.641Z,61.10
2018-11-04T09:20:59.003Z,61.20
2018-11-04T09:23:30.776Z,63.20
2018-11-04T09:26:02.256Z,62.10
2018-11-04T09:28:33.773Z,62.50
2018-11-04T09:31:05.736Z,63.40
2018-11-04T09:33:36.980Z,64.70
2018-11-04T09:36:08.335Z,66.70
2018-11-04T09:38:41.207Z,66.30
2018-11-04T09:41:12.293Z,66.70
2018-11-04T09:43:44.038Z,67.30
2018-11-04T09:46:15.388Z,68.50
2018-11-04T09:48:46.968Z,69.00
2018-11-04T09:51:18.113Z,69.00
2018-11-04T09:53:49.888Z,59.80
2018-11-04T09:56:20.861Z,56.60
2018-11-04T09:58:51.888Z,56.20
2018-11-04T10:01:22.667Z,54.30
2018-11-04T10:03:54.120Z,53.80
2018-11-04T10:06:25.364Z,53.60
2018-11-04T10:08:56.721Z,53.70
2018-11-04T10:11:27.643Z,54.40
2018-11-04T10:13:58.671Z,54.60
2018-11-04T10:16:29.632Z,53.60
2018-11-04T10:19:00.917Z,53.70
2018-11-04T10:21:31.781Z,54.10
2018-11-04T10:24:04.637Z,52.90
2018-11-04T10:26:35.545Z,52.40
2018-11-04T10:29:07.196Z,53.80
2018-11-04T10:31:38.139Z,52.50
2018-11-04T10:34:09.370Z,52.40
2018-11-04T10:36:40.447Z,51.90
2018-11-04T10:39:13.715Z,52.10
2018-11-04T10:41:45.565Z,54.80
2018-11-04T10:44:17.552Z,54.40
2018-11-04T10:46:48.748Z,55.70
2018-11-04T10:49:20.761Z,56.40
2018-11-04T10:51:51.912Z,56.60
2018-11-04T10:54:23.405Z,56.90
2018-11-04T10:56:54.484Z,56.40
2018-11-04T10:59:26.278Z,56.50
2018-11-04T11:01:57.694Z,57.20
2018-11-04T11:04:29.146Z,57.30
2018-11-04T11:07:00.169Z,57.90
2018-11-04T11:09:31.347Z,57.90
2018-11-04T11:12:02.953Z,58.20
2018-11-04T11:14:34.199Z,58.00
2018-11-04T11:17:05.036Z,58.20
2018-11-04T11:19:36.331Z,61.60
2018-11-04T11:22:07.263Z,89.20
2018-11-04T11:24:38.700Z,91.50
2018-11-04T11:27:09.644Z,94.20
2018-11-04T11:29:40.724Z,98.00
2018-11-04T11:32:11.740Z,98.60
2018-11-04T11:34:43.135Z,98.20
2018-11-04T11:37:14.102Z,99.90
2018-11-04T11:39:46.864Z,99.90
2018-11-04T11:42:17.627Z,99.90
2018-11-04T11:44:50.323Z,99.90
2018-11-04T11:47:21.409Z,99.90
2018-11-04T11:49:52.540Z,99.90
2018-11-04T11:52:23.608Z,99.90
2018-11-04T11:54:54.797Z,99.90
2018-11-04T11:57:25.784Z,99.90
2018-11-04T11:59:57.260Z,99.90
2018-11-04T12:02:33.099Z,99.90
2018-11-04T12:05:04.176Z,99.90
2018-11-04T12:07:35.084Z,99.90
2018-11-04T12:10:07.853Z,99.90
2018-11-04T12:12:39.044Z,99.90
2018-11-04T12:15:11.586Z,99.90
2018-11-04T12:17:42.500Z,99.90
2018-11-04T12:20:14.635Z,99.90
2018-11-04T12:22:45.780Z,99.90
2018-11-04T12:25:17.148Z,99.90
2018-11-04T12:27:48.084Z,99.90
2018-11-04T12:30:19.075Z,99.90
2018-11-04T12:32:50.847Z,99.90
2018-11-04T12:35:22.021Z,99.90
2018-11-04T12:37:53.116Z,99.90
2018-11-04T12:40:25.352Z,99.90
2018-11-04T12:42:56.173Z,99.90
2018-11-04T12:45:28.505Z,99.90
2018-11-04T12:47:59.543Z,99.90
2018-11-04T12:50:30.760Z,99.90
2018-11-04T12:53:02.262Z,99.90
2018-11-04T12:55:33.528Z,99.90
2018-11-04T12:58:13.574Z,99.90
2018-11-04T13:00:48.749Z,99.90
2018-11-04T13:03:20.707Z,99.90
2018-11-04T13:05:51.973Z,99.90
2018-11-04T13:08:22.923Z,99.90
2018-11-04T13:10:54.143Z,99.90
2018-11-04T13:13:25.967Z,99.90
2018-11-04T13:15:57.362Z,99.90
2018-11-04T13:18:28.235Z,99.90
2018-11-04T13:20:59.766Z,99.90
2018-11-04T13:23:30.515Z,99.90
2018-11-04T13:26:01.812Z,99.90
2018-11-04T13:28:33.003Z,99.90
2018-11-04T13:31:04.108Z,99.90
2018-11-04T13:33:35.187Z,99.90
2018-11-04T13:36:07.965Z,99.90
2018-11-04T13:38:38.920Z,99.90
2018-11-04T13:41:10.688Z,99.90
2018-11-04T13:43:41.615Z,99.90
2018-11-04T13:46:12.700Z,99.90
2018-11-04T13:48:43.701Z,99.90
2018-11-04T13:51:14.888Z,99.90
2018-11-04T13:53:45.588Z,99.90
2018-11-04T13:56:17.008Z,99.90
2018-11-04T13:58:47.961Z,99.90
2018-11-04T14:01:19.184Z,99.90
2018-11-04T14:03:49.971Z,99.90
2018-11-04T14:06:21.216Z,99.90
2018-11-04T14:08:52.165Z,99.90
2018-11-04T14:11:23.222Z,99.90
2018-11-04T14:13:54.208Z,99.90
2018-11-04T14:16:25.560Z,99.90
2018-11-04T14:18:56.436Z,99.90
2018-11-04T14:21:27.674Z,99.90
2018-11-04T14:23:58.630Z,99.90
2018-11-04T14:26:29.764Z,99.90
2018-11-04T14:29:00.663Z,99.90
2018-11-04T14:31:31.899Z,99.90
2018-11-04T14:34:02.979Z,99.90
2018-11-04T14:36:33.960Z,99.90
2018-11-04T14:39:08.548Z,99.90
2018-11-04T14:41:41.537Z,99.90
2018-11-04T14:44:12.730Z,99.90
2018-11-04T14:46:44.008Z,99.90
2018-11-04T14:49:14.936Z,99.90
2018-11-04T14:51:46.189Z,99.90
2018-11-04T14:54:17.124Z,99.90
2018-11-04T14:56:48.170Z,97.60
2018-11-04T14:59:19.919Z,97.00
2018-11-04T15:01:51.878Z,96.60
2018-11-04T15:04:22.934Z,92.30
2018-11-04T15:06:54.229Z,90.80
2018-11-04T15:09:25.252Z,85.90
2018-11-04T15:11:56.464Z,83.50
2018-11-04T15:14:27.344Z,81.40
2018-11-04T15:16:58.764Z,80.00
2018-11-04T15:19:29.706Z,79.00
2018-11-04T15:22:00.831Z,79.00
2018-11-04T15:24:31.800Z,78.60
2018-11-04T15:27:04.720Z,77.90
2018-11-04T15:29:36.184Z,77.80
2018-11-04T15:32:08.235Z,78.30
2018-11-04T15:34:40.114Z,78.00
2018-11-04T15:37:25.344Z,77.10
2018-11-04T15:39:56.642Z,77.60
2018-11-04T15:42:39.616Z,77.20
2018-11-04T15:45:18.287Z,77.60
2018-11-04T15:47:50.678Z,78.50
2018-11-04T15:50:21.641Z,78.70
2018-11-04T15:52:53.327Z,78.50
2018-11-04T15:55:25.371Z,78.50
2018-11-04T15:57:56.421Z,79.20
2018-11-04T16:00:28.202Z,78.70
2018-11-04T16:02:59.340Z,78.60
2018-11-04T16:05:33.261Z,79.40
2018-11-04T16:08:07.577Z,78.90
2018-11-04T16:10:38.323Z,78.60
2018-11-04T16:13:12.301Z,78.90
2018-11-04T16:15:43.447Z,79.60
2018-11-04T16:18:14.992Z,79.40
2018-11-04T16:20:46.736Z,79.50
2018-11-04T16:23:18.301Z,80.00
2018-11-04T16:25:50.934Z,79.40
2018-11-04T16:28:22.440Z,80.00
2018-11-04T16:30:55.896Z,80.10
2018-11-04T16:33:27.836Z,80.10
2018-11-04T16:36:00.234Z,80.20
2018-11-04T16:38:31.657Z,80.50
2018-11-04T16:41:07.107Z,81.00
2018-11-04T16:43:41.563Z,81.40
2018-11-04T16:46:12.844Z,81.40
2018-11-04T16:48:54.830Z,81.60
2018-11-04T16:51:26.661Z,82.20
2018-11-04T16:53:59.074Z,82.30
2018-11-04T16:56:30.624Z,82.40
2018-11-04T16:59:02.304Z,82.50
2018-11-04T17:01:33.580Z,82.30
2018-11-04T17:04:05.370Z,83.20
2018-11-04T17:06:36.197Z,83.10
2018-11-04T17:09:08.986Z,82.40
2018-11-04T17:11:39.707Z,82.60
2018-11-04T17:14:10.737Z,82.70
2018-11-04T17:16:41.385Z,82.70
2018-11-04T17:19:13.627Z,82.90
2018-11-04T17:21:44.387Z,83.30
2018-11-04T17:24:15.345Z,82.40
2018-11-04T17:26:46.024Z,83.00
2018-11-04T17:29:17.524Z,83.30
2018-11-04T17:31:48.615Z,83.00
2018-11-04T17:34:21.775Z,83.20
2018-11-04T17:36:52.896Z,83.80
2018-11-04T17:39:24.634Z,84.20
2018-11-04T17:41:55.719Z,84.60
2018-11-04T17:44:28.273Z,84.30
2018-11-04T17:46:59.496Z,85.10
2018-11-04T17:49:31.236Z,85.50
2018-11-04T17:52:03.723Z,85.50
2018-11-04T17:54:35.287Z,86.00
2018-11-04T17:57:06.851Z,85.80
2018-11-04T17:59:39.367Z,86.50
2018-11-04T18:02:09.820Z,86.60
2018-11-04T18:04:41.262Z,86.50
2018-11-04T18:07:12.752Z,87.30
2018-11-04T18:09:44.894Z,88.40
2018-11-04T18:12:16.620Z,88.00
2018-11-04T18:14:48.374Z,88.80
2018-11-04T18:17:19.671Z,88.40
2018-11-04T18:19:51.156Z,89.20
2018-11-04T18:22:22.327Z,89.10
2018-11-04T18:24:54.053Z,89.30
2018-11-04T18:27:25.239Z,89.50
2018-11-04T18:29:56.888Z,88.90
2018-11-04T18:32:28.711Z,89.50
2018-11-04T18:35:00.400Z,89.40
2018-11-04T18:37:31.848Z,89.90
2018-11-04T18:40:03.424Z,90.30
2018-11-04T18:42:34.750Z,90.20
2018-11-04T18:45:08.163Z,90.30
2018-11-04T18:47:39.299Z,90.40
2018-11-04T18:50:13.447Z,90.40
2018-11-04T18:52:45.335Z,90.70
2018-11-04T18:55:17.641Z,90.60
2018-11-04T18:57:48.959Z,90.60
2018-11-04T19:00:22.005Z,90.50
2018-11-04T19:03:03.729Z,90.40
2018-11-04T19:05:42.547Z,90.60
2018-11-04T19:08:18.091Z,90.70
2018-11-04T19:10:49.515Z,90.90
2018-11-04T19:13:20.752Z,91.20
2018-11-04T19:15:52.189Z,91.30
2018-11-04T19:18:30.322Z,91.10
2018-11-04T19:21:02.527Z,91.30
2018-11-04T19:23:33.733Z,91.30
2018-11-04T19:26:05.564Z,91.20
2018-11-04T19:28:36.635Z,91.50
2018-11-04T19:31:08.434Z,91.40
2018-11-04T19:33:39.556Z,91.50
2018-11-04T19:36:11.508Z,91.70
2018-11-04T19:38:42.745Z,91.80
2018-11-04T19:41:14.271Z,91.80
2018-11-04T19:43:45.596Z,92.00
2018-11-04T19:46:18.290Z,92.00
2018-11-04T19:48:49.505Z,92.40
2018-11-04T19:51:21.057Z,91.80
2018-11-04T19:53:52.304Z,92.10
2018-11-04T19:56:24.086Z,92.20
2018-11-04T19:58:55.212Z,92.40
2018-11-04T20:01:27.159Z,92.50
2018-11-04T20:03:58.623Z,92.60
2018-11-04T20:06:30.259Z,92.80
2018-11-04T20:09:06.333Z,92.70
2018-11-04T20:11:37.774Z,92.80
2018-11-04T20:14:17.592Z,93.10
2018-11-04T20:16:50.268Z,93.20
2018-11-04T20:19:26.523Z,93.30
2018-11-04T20:21:58.235Z,93.30
2018-11-04T20:24:33.835Z,93.90
2018-11-04T20:27:05.467Z,93.60
2018-11-04T20:29:36.714Z,93.70
2018-11-04T20:32:13.312Z,93.70
2018-11-04T20:34:44.741Z,93.80
2018-11-04T20:37:17.217Z,93.80
2018-11-04T20:39:53.184Z,94.10
2018-11-04T20:42:25.096Z,94.10
2018-11-04T20:44:56.304Z,94.30
2018-11-04T20:47:33.332Z,94.30
2018-11-04T20:50:12.408Z,94.20
2018-11-04T20:52:43.639Z,94.20
2018-11-04T20:55:15.060Z,94.40
2018-11-04T20:57:52.564Z,94.40
2018-11-04T21:00:24.048Z,94.60
2018-11-04T21:02:55.444Z,94.80
2018-11-04T21:05:26.832Z,94.90
2018-11-04T21:07:58.208Z,95.00
2018-11-04T21:10:29.624Z,95.00
2018-11-04T21:13:01.121Z,95.10
2018-11-04T21:15:32.449Z,95.30
2018-11-04T21:18:03.896Z,95.40
2018-11-04T21:20:36.059Z,95.40
2018-11-04T21:23:08.135Z,95.60
2018-11-04T21:25:40.579Z,95.70
2018-11-04T21:28:12.205Z,96.00
2018-11-04T21:30:43.409Z,95.90
2018-11-04T21:33:15.403Z,95.80
2018-11-04T21:35:46.511Z,96.00
2018-11-04T21:38:18.197Z,96.00
2018-11-04T21:40:49.301Z,96.20
2018-11-04T21:43:21.151Z,96.40
2018-11-04T21:45:52.080Z,96.50
2018-11-04T21:48:23.869Z,96.80
2018-11-04T21:50:55.117Z,96.90
2018-11-04T21:53:26.899Z,96.90
2018-11-04T21:55:58.101Z,96.90
2018-11-04T21:58:30.031Z,96.70
2018-11-04T22:01:04.500Z,96.90
2018-11-04T22:03:36.052Z,96.80
2018-11-04T22:06:09.140Z,96.90
2018-11-04T22:08:40.844Z,96.80
2018-11-04T22:11:12.589Z,96.90
2018-11-04T22:13:44.241Z,96.90
2018-11-04T22:16:15.805Z,96.90
2018-11-04T22:18:47.316Z,96.80
2018-11-04T22:21:19.652Z,96.90
2018-11-04T22:23:51.292Z,97.40
2018-11-04T22:26:22.687Z,97.20
2018-11-04T22:28:54.400Z,97.40
2018-11-04T22:31:25.555Z,97.70
2018-11-04T22:33:57.323Z,98.00
2018-11-04T22:36:28.435Z,98.20
2018-11-04T22:39:00.145Z,98.40
2018-11-04T22:41:31.320Z,99.10
2018-11-04T22:44:04.656Z,98.90
2018-11-04T22:46:36.016Z,99.30
2018-11-04T22:49:09.405Z,99.60
2018-11-04T22:51:40.684Z,99.90
2018-11-04T22:54:12.456Z,99.90
2018-11-04T22:56:43.613Z,99.90
2018-11-04T22:59:14.901Z,99.90
2018-11-04T23:01:46.165Z,99.90
2018-11-04T23:04:22.501Z,99.90
2018-11-04T23:06:53.823Z,99.90
2018-11-04T23:09:25.268Z,99.90
2018-11-04T23:11:56.657Z,99.90
2018-11-04T23:14:28.828Z,99.90
2018-11-04T23:16:59.880Z,99.90
2018-11-04T23:19:31.756Z,99.90
2018-11-04T23:22:04.409Z,99.90
2018-11-04T23:24:35.660Z,99.90
2018-11-04T23:27:06.424Z,99.90
2018-11-04T23:29:37.648Z,99.90
2018-11-04T23:32:08.149Z,99.90
2018-11-04T23:34:39.763Z,99.90
2018-11-04T23:37:10.799Z,99.90
2018-11-04T23:39:42.236Z,99.90
2018-11-04T23:42:13.430Z,99.90
2018-11-04T23:44:44.919Z,99.90
2018-11-04T23:47:16.362Z,99.90
2018-11-04T23:49:48.038Z,99.90
2018-11-04T23:52:19.481Z,99.90
2018-11-04T23:54:51.126Z,99.90
2018-11-04T23:57:22.403Z,99.90
2018-11-04T23:59:53.814Z,99.90
